Time;durP1;ratioP1;P1;durP2;ratioP2;P2;SDS_P1;SDS_P2;PMS_P1;PMS_P2;Temp;Humidity;BMP_temperature;BMP_pressure;BME280_temperature;BME280_humidity;BME280_pressure;Samples;Min_cycle;Max_cycle;Signal;HPM_P1;HPM_P2
2022/08/21 00:00:35;;;;;;;16.07;14.57;;;16.80;99.90;;;16.66;100.00;97958.66;5027712;28;20463;-70
2022/08/21 00:03:06;;;;;;;14.73;13.33;;;16.90;99.90;;;16.63;100.00;97950.97;5029359;28;21012;-69
2022/08/21 00:05:38;;;;;;;14.93;13.43;;;16.90;99.90;;;16.74;100.00;97961.97;5036034;28;20522;-69
2022/08/21 00:08:06;;;;;;;14.23;12.93;;;16.90;99.90;;;16.61;100.00;97958.59;5009213;28;20485;-69
2022/08/21 00:10:34;;;;;;;13.57;12.33;;;16.70;99.90;;;16.59;100.00;97947.09;5007778;28;20464;-69
2022/08/21 00:13:02;;;;;;;15.07;12.70;;;16.70;99.90;;;16.70;100.00;97959.78;5008980;28;20565;-70
2022/08/21 00:15:35;;;;;;;13.33;12.13;;;16.80;99.90;;;16.63;100.00;97953.72;5007623;28;20447;-70
2022/08/21 00:18:04;;;;;;;13.00;11.90;;;16.70;99.90;;;16.61;100.00;97946.84;5016770;28;20515;-71
2022/08/21 00:20:32;;;;;;;14.67;13.17;;;16.70;99.90;;;16.58;100.00;97948.19;5042909;28;20510;-71
2022/08/21 00:23:00;;;;;;;14.23;12.67;;;16.70;99.90;;;16.62;100.00;97952.06;5043815;28;20901;-68
2022/08/21 00:25:28;;;;;;;14.40;12.90;;;16.70;99.90;;;16.65;100.00;97943.38;5041974;28;20451;-68
2022/08/21 00:27:55;;;;;;;13.67;12.27;;;16.80;99.90;;;16.64;100.00;97949.91;5028708;28;20551;-69
2022/08/21 00:30:26;;;;;;;14.00;12.57;;;16.70;99.90;;;16.61;100.00;97944.13;5027714;28;20447;-70
2022/08/21 00:32:56;;;;;;;13.43;12.13;;;16.70;99.90;;;16.54;100.00;97930.69;5028659;28;20937;-70
2022/08/21 00:35:27;;;;;;;14.03;12.77;;;16.70;99.90;;;16.50;100.00;97943.19;5026190;28;20945;-69
2022/08/21 00:37:55;;;;;;;14.53;13.10;;;16.60;99.90;;;16.49;100.00;97941.56;5028710;28;20448;-70
2022/08/21 00:40:28;;;;;;;15.77;13.57;;;16.60;99.90;;;16.36;100.00;97938.13;5007287;28;20839;-69
2022/08/21 00:42:55;;;;;;;14.23;12.83;;;16.60;99.90;;;16.38;100.00;97938.72;5024609;28;20509;-68
2022/08/21 00:45:24;;;;;;;14.70;13.20;;;16.60;99.90;;;16.32;100.00;97925.28;5018738;28;20490;-69
2022/08/21 00:47:53;;;;;;;13.60;12.40;;;16.50;99.90;;;16.28;100.00;97930.41;5043733;28;20835;-69
2022/08/21 00:50:23;;;;;;;15.27;13.80;;;16.50;99.90;;;16.28;100.00;97930.41;5011112;28;20794;-70
2022/08/21 00:52:52;;;;;;;14.93;13.33;;;16.50;99.90;;;16.18;100.00;97920.22;5008576;28;20923;-70
2022/08/21 00:55:23;;;;;;;13.97;12.60;;;16.50;99.90;;;16.05;100.00;97899.63;5013161;28;20463;-69
2022/08/21 00:57:54;;;;;;;14.13;12.63;;;16.50;99.90;;;16.23;100.00;97933.91;5028581;28;20997;-71
2022/08/21 01:00:29;;;;;;;14.37;12.93;;;16.40;99.90;;;16.17;100.00;97945.00;5026936;28;20823;-70
2022/08/21 01:02:58;;;;;;;13.40;12.20;;;16.40;99.90;;;16.26;100.00;97948.91;5054166;28;20472;-70
2022/08/21 01:05:28;;;;;;;12.63;11.33;;;16.40;99.90;;;16.23;100.00;97949.44;5048431;28;20452;-70
2022/08/21 01:07:57;;;;;;;11.73;10.70;;;16.40;99.90;;;16.16;100.00;97951.53;5052084;28;20499;-71
2022/08/21 01:10:25;;;;;;;13.53;12.13;;;16.30;99.90;;;16.00;100.00;97940.44;5050872;28;20449;-71
2022/08/21 01:12:54;;;;;;;13.53;12.13;;;16.30;99.90;;;16.06;100.00;97955.78;5023507;28;20484;-69
2022/08/21 01:15:25;;;;;;;12.37;10.73;;;16.30;99.90;;;16.02;100.00;97949.19;5045719;28;20504;-68
2022/08/21 01:17:54;;;;;;;12.53;11.27;;;16.20;99.90;;;15.96;100.00;97956.47;5031944;28;20454;-69
2022/08/21 01:20:22;;;;;;;12.30;11.13;;;16.10;99.90;;;15.89;100.00;97954.97;5031100;28;20496;-69
2022/08/21 01:22:50;;;;;;;12.60;11.30;;;16.00;99.90;;;16.02;100.00;97943.75;5032235;28;20461;-69
2022/08/21 01:25:20;;;;;;;13.23;11.70;;;16.10;99.90;;;15.92;100.00;97943.59;5045568;28;20982;-69
2022/08/21 01:27:47;;;;;;;12.60;11.40;;;16.10;99.90;;;15.95;100.00;97945.81;5032238;28;20451;-69
2022/08/21 01:30:20;;;;;;;13.40;12.03;;;16.20;99.90;;;16.00;100.00;97943.16;5030149;28;20446;-69
2022/08/21 01:32:48;;;;;;;12.67;11.57;;;16.20;99.90;;;16.04;100.00;97951.63;5047147;28;20525;-69
2022/08/21 01:35:18;;;;;;;11.10;10.20;;;16.20;99.90;;;16.06;100.00;97955.78;5030081;28;20454;-69
2022/08/21 01:37:46;;;;;;;11.40;10.37;;;16.20;99.90;;;16.00;100.00;97951.34;5020202;28;20468;-69
2022/08/21 01:40:17;;;;;;;11.23;10.17;;;16.20;99.90;;;15.94;100.00;97946.88;5010809;28;20448;-68
2022/08/21 01:42:46;;;;;;;14.00;10.77;;;16.20;99.90;;;15.94;100.00;97952.34;5010324;28;20466;-69
2022/08/21 01:45:14;;;;;;;11.83;10.77;;;16.20;99.90;;;15.94;100.00;97941.44;5025490;28;20447;-70
2022/08/21 01:47:42;;;;;;;10.10;9.20;;;16.10;99.90;;;15.79;100.00;97934.69;5027235;28;20465;-68
2022/08/21 01:50:14;;;;;;;11.23;10.17;;;16.00;99.90;;;15.70;100.00;97936.19;5030963;28;20524;-70
2022/08/21 01:52:41;;;;;;;10.13;9.23;;;16.00;99.90;;;15.66;100.00;97941.31;5027123;28;20508;-69
2022/08/21 01:55:12;;;;;;;10.20;9.30;;;16.00;99.90;;;15.67;100.00;97942.97;5014910;28;20472;-69
2022/08/21 01:57:41;;;;;;;10.33;9.53;;;15.90;99.90;;;15.55;100.00;97923.19;5038588;28;20460;-70
2022/08/21 02:00:13;;;;;;;9.53;8.70;;;15.90;99.90;;;15.59;100.00;97940.66;5042618;28;20505;-69
2022/08/21 02:02:40;;;;;;;9.37;8.47;;;15.80;99.90;;;15.75;100.00;97932.69;5059644;28;20475;-70
2022/08/21 02:05:11;;;;;;;9.43;8.57;;;15.90;99.90;;;15.68;100.00;97930.16;5044810;28;20894;-70
2022/08/21 02:07:38;;;;;;;9.20;8.50;;;16.00;99.90;;;15.69;100.00;97934.53;5031040;28;20446;-70
2022/08/21 02:10:10;;;;;;;8.63;7.90;;;15.90;99.90;;;15.55;100.00;97934.91;5029883;28;20530;-70
2022/08/21 02:12:37;;;;;;;9.00;8.20;;;15.90;99.90;;;15.78;100.00;97930.31;5045977;28;20458;-71
2022/08/21 02:15:09;;;;;;;9.13;8.43;;;15.90;99.90;;;15.85;100.00;97930.97;5029066;28;20995;-70
2022/08/21 02:17:42;;;;;;;9.00;8.30;;;16.00;99.90;;;15.82;100.00;97936.09;5029474;28;20593;-69
2022/08/21 02:20:11;;;;;;;9.33;8.53;;;16.00;99.90;;;15.90;100.00;97927.50;5024598;28;20939;-69
2022/08/21 02:22:38;;;;;;;8.87;8.17;;;16.00;99.90;;;15.91;100.00;97922.88;5011249;28;20523;-69
2022/08/21 02:25:07;;;;;;;9.57;8.80;;;16.10;99.90;;;15.89;100.00;97922.28;5013827;28;20457;-69
2022/08/21 02:27:41;;;;;;;9.23;8.53;;;16.20;99.90;;;15.99;100.00;97927.88;5024758;28;20458;-69
2022/08/21 02:30:13;;;;;;;9.53;8.73;;;16.20;99.90;;;15.96;100.00;97917.47;5010068;28;20848;-70
2022/08/21 02:32:42;;;;;;;9.60;8.90;;;16.20;99.90;;;15.92;100.00;97924.53;5010818;28;20467;-69
2022/08/21 02:35:11;;;;;;;8.90;8.00;;;16.20;99.90;;;16.00;100.00;97910.47;5024154;28;20459;-70
2022/08/21 02:37:46;;;;;;;8.23;7.53;;;16.20;99.90;;;15.97;99.91;97916.41;5025714;28;20954;-70
2022/08/21 02:40:16;;;;;;;8.90;8.20;;;16.20;99.90;;;15.95;100.00;97919.41;5025157;28;20447;-70
2022/08/21 02:42:43;;;;;;;8.40;7.70;;;16.20;99.90;;;15.97;100.00;97930.03;5010541;28;20983;-70
2022/08/21 02:45:14;;;;;;;8.90;8.20;;;16.20;99.90;;;15.99;100.00;97925.16;5008968;28;20975;-69
2022/08/21 02:47:48;;;;;;;9.67;8.77;;;16.20;99.90;;;16.04;100.00;97927.13;5009028;28;20461;-69
2022/08/21 02:50:21;;;;;;;8.50;7.90;;;16.20;99.90;;;16.07;100.00;97930.16;5024551;28;20471;-69
2022/08/21 02:52:50;;;;;;;8.23;7.73;;;16.20;99.90;;;16.11;99.88;97934.03;5016612;28;20481;-69
2022/08/21 02:55:18;;;;;;;8.40;7.70;;;16.30;99.90;;;16.12;99.50;97945.75;5027125;28;20531;-69
2022/08/21 02:57:45;;;;;;;8.80;8.00;;;16.30;99.90;;;16.17;100.00;97939.56;5048243;28;20442;-70
2022/08/21 03:00:15;;;;;;;9.50;8.70;;;16.30;99.90;;;16.06;99.98;97933.97;5048887;28;20855;-70
2022/08/21 03:02:46;;;;;;;7.97;7.33;;;16.30;99.90;;;16.09;99.36;97938.91;5050095;28;20452;-69
2022/08/21 03:05:15;;;;;;;8.60;7.90;;;16.30;99.90;;;16.10;99.06;97937.84;5063414;28;20454;-69
2022/08/21 03:07:43;;;;;;;7.57;6.97;;;16.30;99.90;;;16.01;99.69;97936.63;5050196;28;20449;-70
2022/08/21 03:10:11;;;;;;;8.63;7.93;;;16.10;99.90;;;15.96;99.25;97933.84;5048479;28;20565;-69
2022/08/21 03:12:38;;;;;;;7.93;7.33;;;16.10;99.90;;;15.84;99.79;97923.84;5049595;28;20453;-71
2022/08/21 03:15:14;;;;;;;8.47;7.83;;;16.10;99.90;;;15.68;100.00;97916.53;5048050;28;20475;-70
2022/08/21 03:17:42;;;;;;;8.50;7.80;;;16.00;99.90;;;15.68;100.00;97931.00;5049643;28;20461;-69
2022/08/21 03:20:12;;;;;;;9.00;8.20;;;15.90;99.90;;;15.60;100.00;97930.59;5037084;28;20501;-69
2022/08/21 03:22:39;;;;;;;8.67;8.07;;;15.80;99.90;;;15.52;100.00;97924.50;5043732;28;20447;-70
2022/08/21 03:25:10;;;;;;;7.77;7.10;;;15.70;99.90;;;15.48;100.00;97928.78;5027784;28;20461;-69
2022/08/21 03:27:38;;;;;;;10.70;8.60;;;15.60;99.90;;;15.41;100.00;97939.03;5044638;28;20523;-69
2022/08/21 03:30:08;;;;;;;9.20;8.50;;;15.60;99.90;;;15.35;100.00;97934.59;5028776;28;20477;-70
2022/08/21 03:32:36;;;;;;;9.60;8.80;;;15.50;99.90;;;15.30;100.00;97938.88;5030546;28;20490;-69
2022/08/21 03:35:06;;;;;;;10.00;9.10;;;15.50;99.90;;;15.35;100.00;97932.69;5043996;28;20465;-69
2022/08/21 03:37:33;;;;;;;10.07;9.20;;;15.50;99.90;;;15.26;100.00;97935.00;5029723;28;20443;-69
2022/08/21 03:40:01;;;;;;;11.77;10.57;;;15.40;99.90;;;15.14;100.00;97939.72;5028619;28;20465;-71
2022/08/21 03:42:28;;;;;;;11.27;10.37;;;15.30;99.90;;;15.13;100.00;97948.94;5029261;28;20451;-69
2022/08/21 03:44:55;;;;;;;11.00;10.00;;;15.30;99.90;;;15.08;100.00;97952.41;5027591;28;20450;-70
2022/08/21 03:47:22;;;;;;;11.17;10.17;;;15.30;99.90;;;15.05;100.00;97952.06;5036987;28;20456;-69
2022/08/21 03:49:50;;;;;;;11.00;10.10;;;15.20;99.90;;;15.04;100.00;97964.84;5027369;28;20487;-70
2022/08/21 03:52:19;;;;;;;12.30;11.27;;;15.20;99.90;;;15.02;100.00;97953.41;5042831;28;20470;-69
2022/08/21 03:54:47;;;;;;;12.20;11.10;;;15.20;99.90;;;15.07;100.00;97955.34;5044342;28;20453;-69
2022/08/21 03:57:15;;;;;;;12.10;11.00;;;15.20;99.90;;;15.09;100.00;97948.59;5029196;28;20512;-70
2022/08/21 03:59:42;;;;;;;12.47;11.20;;;15.30;99.90;;;15.16;100.00;97956.59;5027866;28;20457;-69
2022/08/21 04:02:12;;;;;;;12.20;11.10;;;15.30;99.90;;;15.09;100.00;97955.94;5028089;28;20514;-70
2022/08/21 04:04:39;;;;;;;11.13;10.10;;;15.30;99.90;;;15.16;100.00;97956.59;5042761;28;20955;-72
2022/08/21 04:07:06;;;;;;;11.37;10.37;;;15.30;99.90;;;15.12;100.00;97960.91;5028975;28;20453;-68
2022/08/21 04:09:35;;;;;;;10.43;9.53;;;15.30;99.90;;;15.17;100.00;97966.41;5028942;28;20824;-69
2022/08/21 04:12:03;;;;;;;10.80;9.90;;;15.40;99.90;;;15.20;100.00;97952.31;5043163;28;20454;-70
2022/08/21 04:14:31;;;;;;;12.43;10.23;;;15.40;99.90;;;15.32;100.00;97962.31;5013057;28;20467;-68
2022/08/21 04:16:58;;;;;;;11.97;10.77;;;15.50;99.90;;;15.39;100.00;97968.38;5016942;28;20489;-68
2022/08/21 04:19:25;;;;;;;28.43;16.00;;;15.50;99.90;;;15.48;100.00;97961.47;5044298;28;20458;-68
2022/08/21 04:21:52;;;;;;;47.37;16.37;;;15.60;99.90;;;15.42;100.00;97959.75;5027908;28;20465;-69
2022/08/21 04:24:20;;;;;;;18.10;15.23;;;15.60;99.90;;;15.52;100.00;97968.06;5028152;28;20942;-68
2022/08/21 04:26:48;;;;;;;17.83;15.37;;;15.60;99.90;;;15.52;100.00;97968.06;5027568;28;20462;-69
2022/08/21 04:29:16;;;;;;;20.60;15.40;;;15.70;99.90;;;15.50;100.00;97962.03;5027518;28;20473;-68
2022/08/21 04:31:43;;;;;;;21.73;15.50;;;15.70;99.90;;;15.43;100.00;97969.56;5025691;28;20525;-69
2022/08/21 04:34:11;;;;;;;19.33;13.67;;;15.70;99.90;;;15.58;100.00;97967.06;5028132;28;20455;-68
2022/08/21 04:36:38;;;;;;;22.23;15.90;;;15.80;99.90;;;15.56;100.00;97968.38;5026717;28;20469;-69
2022/08/21 04:39:06;;;;;;;113.83;19.37;;;15.80;99.90;;;15.53;100.00;97966.16;5027970;28;20456;-69
2022/08/21 04:41:33;;;;;;;144.93;23.10;;;15.80;99.90;;;15.57;100.00;97965.44;5023722;28;20513;-69
2022/08/21 04:44:02;;;;;;;32.13;18.50;;;15.80;99.90;;;15.53;100.00;97972.44;5008065;28;20508;-71
2022/08/21 04:46:29;;;;;;;21.50;17.03;;;15.80;99.90;;;15.78;100.00;97970.34;5028582;28;20952;-70
2022/08/21 04:48:57;;;;;;;22.77;16.53;;;15.80;99.90;;;15.84;100.00;97975.59;5034406;28;20463;-69
2022/08/21 04:51:30;;;;;;;31.10;17.33;;;15.90;99.90;;;15.84;100.00;97970.16;5027109;28;20457;-70
2022/08/21 04:54:02;;;;;;;33.20;18.30;;;15.90;99.90;;;15.66;100.00;97940.47;5043407;28;20450;-69
2022/08/21 04:56:34;;;;;;;34.97;16.87;;;16.00;99.90;;;15.79;100.00;97991.88;5042039;28;20573;-69
2022/08/21 04:59:11;;;;;;;27.43;16.80;;;16.00;99.90;;;15.80;100.00;97984.53;5028491;28;20440;-70
2022/08/21 05:01:41;;;;;;;34.97;18.13;;;16.00;99.90;;;15.74;100.00;97980.91;5027157;28;20939;-70
2022/08/21 05:04:14;;;;;;;32.57;17.83;;;16.00;99.90;;;15.82;100.00;97996.81;5033947;28;20447;-69
2022/08/21 05:06:46;;;;;;;59.53;20.40;;;16.00;99.90;;;15.83;100.00;98001.19;5007040;28;20462;-69
2022/08/21 05:09:16;;;;;;;28.70;17.50;;;16.00;99.90;;;15.81;100.00;98003.34;5030510;28;20516;-69
2022/08/21 05:11:45;;;;;;;35.00;18.20;;;16.00;99.90;;;15.89;100.00;98004.84;5027850;28;20514;-71
2022/08/21 05:14:14;;;;;;;52.33;18.93;;;16.00;99.90;;;15.92;100.00;98007.09;5008056;28;20449;-69
2022/08/21 05:16:41;;;;;;;45.27;18.20;;;16.00;99.90;;;16.01;100.00;98007.47;5021929;28;20454;-69
2022/08/21 05:19:09;;;;;;;41.10;16.20;;;16.20;99.90;;;15.94;100.00;98010.38;5008866;28;20439;-70
2022/08/21 05:21:40;;;;;;;45.60;15.03;;;16.20;99.90;;;15.95;100.00;98003.84;5022074;28;20458;-71
2022/08/21 05:24:09;;;;;;;31.37;14.87;;;16.20;99.90;;;16.00;100.00;98001.19;5022812;28;20452;-70
2022/08/21 05:26:36;;;;;;;75.13;15.87;;;16.20;99.90;;;16.11;100.00;98007.59;5039122;28;20462;-70
2022/08/21 05:29:04;;;;;;;183.67;21.57;;;16.20;99.90;;;16.10;100.00;98005.97;5027304;28;20460;-70
2022/08/21 05:31:33;;;;;;;75.87;15.97;;;16.30;99.90;;;15.96;100.00;98021.03;5013612;28;20992;-70
2022/08/21 05:34:01;;;;;;;33.57;14.87;;;16.20;99.90;;;16.17;100.00;98007.69;5022572;28;20547;-71
2022/08/21 05:36:29;;;;;;;76.80;15.80;;;16.30;99.90;;;16.18;100.00;98007.44;5007077;28;20450;-68
2022/08/21 05:38:56;;;;;;;48.93;13.23;;;16.30;99.90;;;16.32;99.78;98013.34;5008735;28;20978;-69
2022/08/21 05:41:23;;;;;;;106.27;15.43;;;16.40;99.90;;;16.28;98.81;98007.56;5010797;28;20481;-69
2022/08/21 05:43:50;;;;;;;177.90;18.63;;;16.50;99.90;;;16.19;99.91;98017.25;5060402;28;20457;-69
2022/08/21 05:46:18;;;;;;;85.30;14.67;;;16.40;99.90;;;16.35;99.54;98028.34;5026926;28;20856;-70
2022/08/21 05:48:46;;;;;;;40.47;14.07;;;16.50;99.90;;;16.36;99.84;98009.03;5024228;28;20952;-69
2022/08/21 05:51:16;;;;;;;29.33;12.50;;;16.50;99.90;;;16.50;97.68;98019.56;5009160;28;20478;-70
2022/08/21 05:53:44;;;;;;;56.90;12.40;;;16.70;99.90;;;16.57;96.93;98017.44;5026600;28;20437;-68
2022/08/21 05:56:14;;;;;;;69.07;15.93;;;16.70;99.90;;;16.64;96.29;98012.63;5023417;28;20478;-68
2022/08/21 05:58:41;;;;;;;12.93;11.60;;;16.80;99.90;;;16.91;96.43;98005.53;5030524;28;20518;-68
2022/08/21 06:01:09;;;;;;;13.60;12.27;;;16.90;99.90;;;16.74;96.96;98003.72;5030324;28;20517;-69
2022/08/21 06:03:40;;;;;;;15.30;11.00;;;16.90;99.90;;;17.14;94.17;98012.63;5016880;28;20458;-69
2022/08/21 06:06:09;;;;;;;11.90;10.80;;;17.10;99.90;;;17.29;91.75;98003.75;5024852;28;21034;-69
2022/08/21 06:08:37;;;;;;;28.43;10.60;;;17.30;99.90;;;17.23;92.37;98010.25;5011408;28;20554;-70
2022/08/21 06:11:06;;;;;;;19.40;10.33;;;17.30;99.90;;;17.29;90.79;98001.03;5010049;28;20469;-71
2022/08/21 06:13:34;;;;;;;11.23;9.80;;;17.40;99.90;;;17.34;91.66;98017.44;5011351;28;20863;-69
2022/08/21 06:16:07;;;;;;;12.30;10.13;;;17.30;99.90;;;17.56;89.83;98017.34;5010048;28;20965;-68
2022/08/21 06:18:34;;;;;;;14.60;10.50;;;17.50;99.90;;;17.55;89.19;98018.44;5013130;28;20570;-69
2022/08/21 06:21:02;;;;;;;12.67;11.27;;;17.70;99.90;;;17.61;88.75;98015.75;5032050;28;20455;-69
2022/08/21 06:23:31;;;;;;;20.03;11.23;;;17.70;99.90;;;17.72;88.53;98022.94;5029953;28;20459;-69
2022/08/21 06:25:58;;;;;;;12.73;10.27;;;17.80;99.90;;;17.43;87.68;97971.38;5037118;28;20456;-69
2022/08/21 06:28:26;;;;;;;34.27;10.90;;;17.90;99.90;;;17.61;88.44;98019.31;5047244;28;20451;-69
2022/08/21 06:30:53;;;;;;;66.07;13.03;;;17.90;99.90;;;17.47;89.60;98021.63;5044819;28;20498;-71
2022/08/21 06:33:20;;;;;;;27.93;12.60;;;17.70;99.90;;;17.38;90.68;98028.69;5030546;28;20462;-70
2022/08/21 06:35:48;;;;;;;19.43;10.70;;;17.70;99.90;;;17.53;90.42;98028.81;5029041;28;20475;-69
2022/08/21 06:38:15;;;;;;;17.03;11.70;;;17.70;99.90;;;17.92;88.72;98030.44;5035196;28;20465;-69
2022/08/21 06:40:44;;;;;;;11.73;10.67;;;17.90;99.90;;;17.83;88.48;98041.06;5055975;28;20967;-69
2022/08/21 06:43:17;;;;;;;22.97;11.50;;;17.90;99.90;;;17.68;88.96;98035.47;5050443;28;20746;-69
2022/08/21 06:45:45;;;;;;;23.30;12.13;;;17.80;99.90;;;17.84;89.52;98034.50;5047495;28;20446;-70
2022/08/21 06:48:12;;;;;;;30.90;12.10;;;17.80;99.90;;;17.69;89.00;98045.31;5048581;28;20451;-70
2022/08/21 06:50:40;;;;;;;15.90;11.80;;;17.80;99.90;;;17.63;90.21;98035.41;5025044;28;20475;-69
2022/08/21 06:53:10;;;;;;;30.70;12.50;;;17.60;99.90;;;17.50;89.98;98032.03;5014339;28;20454;-72
2022/08/21 06:55:39;;;;;;;13.30;11.80;;;17.60;99.90;;;17.79;88.76;98039.91;5028456;28;20467;-75
2022/08/21 06:58:08;;;;;;;13.30;12.00;;;17.80;99.90;;;18.08;86.86;98033.31;5028468;28;20455;-70
2022/08/21 07:00:40;;;;;;;12.30;11.10;;;18.00;99.90;;;18.08;86.93;98039.59;5029279;28;20451;-69
2022/08/21 07:03:07;;;;;;;28.03;12.53;;;18.00;99.90;;;17.58;88.58;98024.47;5028345;28;20460;-71
2022/08/21 07:05:35;;;;;;;12.90;11.33;;;17.80;99.90;;;17.81;88.37;98040.47;5028749;28;20903;-69
2022/08/21 07:08:03;;;;;;;20.63;11.87;;;17.80;99.90;;;18.23;85.91;98032.56;5030518;28;20452;-69
2022/08/21 07:10:30;;;;;;;11.57;10.33;;;18.20;99.90;;;18.28;86.31;98040.81;5029710;28;20475;-69
2022/08/21 07:12:57;;;;;;;20.17;13.07;;;18.30;99.90;;;18.05;86.78;98022.91;5028484;28;20449;-71
2022/08/21 07:15:26;;;;;;;20.80;11.67;;;18.30;99.50;;;18.19;86.70;98036.94;5043423;28;20516;-69
2022/08/21 07:17:53;;;;;;;15.03;12.70;;;18.30;99.90;;;18.14;86.31;98042.38;5037307;28;20514;-70
2022/08/21 07:20:21;;;;;;;12.57;11.57;;;18.30;99.50;;;17.98;86.51;98050.44;5009125;28;20676;-69
2022/08/21 07:22:48;;;;;;;12.23;11.13;;;18.00;99.90;;;18.05;86.21;98042.03;5010197;28;20502;-70
2022/08/21 07:25:15;;;;;;;17.30;15.50;;;18.00;99.90;;;17.96;85.80;98041.66;5014023;28;20925;-70
2022/08/21 07:27:43;;;;;;;18.97;15.07;;;18.00;99.90;;;17.90;85.39;98029.06;5029161;28;20463;-69
2022/08/21 07:30:11;;;;;;;16.10;14.60;;;18.10;99.30;;;17.91;85.08;98045.22;5028891;28;20471;-72
2022/08/21 07:32:40;;;;;;;15.20;13.80;;;18.20;98.10;;;18.09;85.58;98046.69;5029555;28;20470;-71
2022/08/21 07:35:08;;;;;;;16.03;14.53;;;18.10;99.80;;;18.36;84.86;98045.75;5035449;28;20533;-71
2022/08/21 07:37:35;;;;;;;21.03;14.03;;;18.30;99.30;;;18.13;85.03;98049.75;5061162;28;20447;-74
2022/08/21 07:40:05;;;;;;;15.80;14.20;;;18.30;97.80;;;18.06;85.59;98049.97;5028267;28;20552;-70
2022/08/21 07:42:32;;;;;;;17.90;16.10;;;18.20;99.30;;;17.89;85.61;98046.53;5029821;28;20449;-70
2022/08/21 07:44:59;;;;;;;20.73;15.90;;;18.10;98.80;;;17.76;86.60;98034.16;5026599;28;21078;-69
2022/08/21 07:47:27;;;;;;;16.47;15.03;;;17.90;99.90;;;18.20;86.03;98044.03;5028069;28;20453;-70
2022/08/21 07:49:55;;;;;;;17.27;15.77;;;18.10;99.90;;;18.63;82.80;98020.16;5031005;28;20501;-73
2022/08/21 07:52:23;;;;;;;16.77;15.17;;;18.60;97.50;;;19.03;81.17;98023.31;5025100;28;20510;-70
2022/08/21 07:54:50;;;;;;;17.67;16.07;;;18.90;95.70;;;18.75;82.45;98035.53;5036372;28;20528;-69
2022/08/21 07:57:17;;;;;;;17.90;16.20;;;18.80;95.90;;;18.36;83.39;98040.28;5029053;28;20540;-71
2022/08/21 07:59:45;;;;;;;17.23;15.77;;;18.80;95.30;;;18.76;83.08;98037.19;5027801;28;20439;-74
2022/08/21 08:02:24;;;;;;;17.63;16.13;;;18.80;96.50;;;19.10;81.32;98039.47;5028528;28;20454;-70
2022/08/21 08:04:51;;;;;;;16.73;15.30;;;19.00;95.70;;;19.30;80.75;98026.91;5027030;28;21023;-70
2022/08/21 08:07:20;;;;;;;16.03;14.73;;;19.30;95.10;;;19.60;79.14;98030.75;5029572;28;20544;-74
2022/08/21 08:09:48;;;;;;;16.00;14.60;;;19.50;94.20;;;19.63;77.53;98030.19;5016723;28;20459;-70
2022/08/21 08:12:15;;;;;;;15.87;14.53;;;19.70;92.80;;;19.36;78.76;98037.59;5024436;28;20463;-70
2022/08/21 08:14:43;;;;;;;16.37;14.97;;;19.60;93.10;;;19.39;79.22;98036.22;5006413;28;20543;-77
2022/08/21 08:17:10;;;;;;;16.63;15.27;;;19.50;93.50;;;19.08;79.98;98031.53;5009392;28;21047;-73
2022/08/21 08:19:38;;;;;;;16.93;15.53;;;19.30;93.80;;;19.23;80.48;98033.47;5024304;28;20483;-71
2022/08/21 08:22:15;;;;;;;17.13;15.73;;;19.40;94.20;;;19.33;79.24;98029.94;5009315;28;20456;-71
2022/08/21 08:24:43;;;;;;;16.93;15.20;;;19.50;93.40;;;20.38;74.53;98026.78;5024301;28;20455;-77
2022/08/21 08:27:10;;;;;;;15.87;14.60;;;20.10;92.00;;;20.52;73.48;98028.94;5028759;28;20969;-70
2022/08/21 08:29:38;;;;;;;18.03;16.43;;;20.40;91.10;;;20.97;71.94;98022.72;5029399;28;20478;-71
2022/08/21 08:32:08;;;;;;;15.53;14.23;;;20.80;90.70;;;21.37;71.63;98016.13;5036213;28;20537;-69
2022/08/21 08:34:35;;;;;;;16.03;14.73;;;21.10;90.50;;;21.75;69.24;98010.06;5029499;28;21042;-71
2022/08/21 08:37:06;;;;;;;15.80;14.60;;;21.50;89.90;;;21.24;70.18;98022.28;5027937;28;20747;-71
2022/08/21 08:39:33;;;;;;;15.40;14.20;;;21.50;88.90;;;21.17;70.13;98019.03;5008574;28;20457;-73
2022/08/21 08:42:23;;;;;;;15.77;14.57;;;21.40;89.00;;;20.83;72.23;98008.81;5022945;28;20469;-72
2022/08/21 08:44:59;;;;;;;16.13;14.93;;;21.10;89.60;;;21.02;71.59;98004.28;5006683;28;20476;-71
2022/08/21 08:47:31;;;;;;;16.87;15.50;;;21.10;89.50;;;21.18;71.02;98013.25;5008623;28;20449;-71
2022/08/21 08:50:06;;;;;;;16.40;15.00;;;21.30;89.50;;;20.75;72.95;98012.94;5007331;28;20460;-72
2022/08/21 08:52:36;;;;;;;16.80;15.30;;;20.90;90.00;;;20.70;73.06;98008.28;5026483;28;20484;-71
2022/08/21 08:55:09;;;;;;;17.13;15.73;;;20.80;90.20;;;20.60;73.46;98013.81;5026050;28;20962;-70
2022/08/21 08:57:41;;;;;;;17.03;15.60;;;20.80;90.30;;;20.75;72.39;97988.22;5027134;28;20838;-73
2022/08/21 09:00:13;;;;;;;16.97;15.57;;;20.90;90.30;;;20.67;72.75;97990.44;5027365;28;20457;-71
2022/08/21 09:02:44;;;;;;;16.90;15.50;;;20.90;90.10;;;20.53;72.25;97970.22;5010966;28;20475;-78
2022/08/21 09:05:23;;;;;;;16.63;15.23;;;21.00;90.10;;;20.56;73.29;98024.56;5006967;28;20826;-71
2022/08/21 09:08:17;;;;;;;18.67;17.00;;;20.90;90.10;;;20.37;74.38;98022.41;5009043;28;20549;-70
2022/08/21 09:10:55;;;;;;;18.13;16.63;;;20.80;90.20;;;20.95;72.45;98014.78;5014513;28;20795;-70
2022/08/21 09:13:38;;;;;;;17.40;15.77;;;21.00;90.20;;;21.29;70.80;98022.25;5028285;28;20469;-72
2022/08/21 09:16:15;;;;;;;15.80;14.60;;;21.20;89.70;;;21.87;68.58;98017.09;5026080;28;20439;-70
2022/08/21 09:18:55;;;;;;;15.97;14.67;;;21.60;89.10;;;21.92;67.94;98008.81;5028188;28;20463;-72
2022/08/21 09:21:32;;;;;;;17.00;15.50;;;21.80;88.40;;;21.76;68.30;98006.22;5025958;28;20553;-73
2022/08/21 09:24:04;;;;;;;17.10;15.73;;;22.00;87.80;;;21.64;68.66;97997.50;5026780;28;20737;-69
2022/08/21 09:26:40;;;;;;;17.10;15.70;;;21.90;87.70;;;21.21;70.12;98006.34;5028137;28;20533;-76
2022/08/21 09:29:12;;;;;;;16.97;15.50;;;21.40;88.60;;;21.70;68.75;98012.06;5033114;28;20446;-72
2022/08/21 09:31:40;;;;;;;17.07;15.67;;;21.70;88.40;;;21.47;69.52;98015.25;5030691;28;20558;-71
2022/08/21 09:34:09;;;;;;;17.10;15.70;;;21.60;88.20;;;21.55;69.62;98007.47;5031076;28;20459;-70
2022/08/21 09:36:41;;;;;;;18.93;17.23;;;21.60;88.50;;;21.40;70.32;98011.19;5031235;28;20546;-69
2022/08/21 09:39:10;;;;;;;16.20;14.90;;;21.60;88.40;;;21.46;69.49;98010.84;5030741;28;20445;-71
2022/08/21 09:41:39;;;;;;;16.70;15.30;;;21.50;88.10;;;21.63;67.94;98012.34;5030790;28;20455;-68
2022/08/21 09:44:09;;;;;;;16.07;14.87;;;21.60;87.60;;;21.85;67.57;98008.31;5028983;28;20602;-72
2022/08/21 09:46:37;;;;;;;15.20;13.90;;;21.90;87.40;;;21.92;68.04;98000.56;5031087;28;20449;-71
2022/08/21 09:49:05;;;;;;;15.30;14.10;;;22.10;87.30;;;22.02;67.89;98003.19;5040769;28;20451;-69
2022/08/21 09:51:38;;;;;;;17.73;16.10;;;22.10;87.50;;;22.63;65.21;98006.38;5010950;28;20535;-69
2022/08/21 09:54:17;;;;;;;15.63;14.40;;;22.60;86.50;;;22.71;64.80;97995.81;5023272;28;20514;-70
2022/08/21 09:59:45;;;;;;;18.10;16.40;;;22.50;85.80;;;22.50;65.91;97996.91;5046320;28;20463;-77
2022/08/21 10:02:27;;;;;;;16.13;14.93;;;22.60;86.20;;;22.85;64.32;97993.97;5030299;28;21066;-70
2022/08/21 10:04:58;;;;;;;15.37;14.07;;;22.90;85.40;;;22.57;63.59;97996.53;5044329;28;20444;-73
2022/08/21 10:07:29;;;;;;;15.97;14.50;;;22.90;84.30;;;22.45;63.83;97990.63;5031527;28;20460;-70
2022/08/21 10:10:04;;;;;;;17.07;15.77;;;22.80;84.30;;;22.62;63.58;97993.72;5030191;28;20464;-71
2022/08/21 10:12:42;;;;;;;15.83;14.60;;;22.80;84.20;;;22.69;62.85;97992.56;5030034;28;20476;-69
2022/08/21 10:15:21;;;;;;;14.77;13.67;;;22.90;83.70;;;22.28;64.44;97991.91;5029701;28;20963;-70
2022/08/21 10:17:58;;;;;;;14.30;13.20;;;22.70;84.30;;;22.13;65.53;97989.34;5030732;28;21013;-69